sensor_id;sensor_type;location;lat;lon;timestamp;P1;durP1;ratioP1;P2;durP2;ratioP2
10442;SDS011;5269;51.146;16.986;2022-12-10T00:00:15;47.47;;;22.00;;
10442;SDS011;5269;51.146;16.986;2022-12-10T00:06:06;45.33;;;18.77;;
10442;SDS011;5269;51.146;16.986;2022-12-10T00:08:48;52.90;;;23.63;;
10442;SDS011;5269;51.146;16.986;2022-12-10T00:11:45;48.17;;;21.92;;
10442;SDS011;5269;51.146;16.986;2022-12-10T00:14:22;47.33;;;21.13;;
10442;SDS011;5269;51.146;16.986;2022-12-10T00:17:16;48.40;;;20.77;;
10442;SDS011;5269;51.146;16.986;2022-12-10T00:19:55;46.97;;;20.20;;
10442;SDS011;5269;51.146;16.986;2022-12-10T00:22:36;47.70;;;21.37;;
10442;SDS011;5269;51.146;16.986;2022-12-10T00:25:19;50.50;;;22.50;;
10442;SDS011;5269;51.146;16.986;2022-12-10T00:27:54;47.93;;;22.70;;
10442;SDS011;5269;51.146;16.986;2022-12-10T00:30:37;49.90;;;22.57;;
10442;SDS011;5269;51.146;16.986;2022-12-10T00:33:26;50.27;;;21.77;;
10442;SDS011;5269;51.146;16.986;2022-12-10T00:36:05;44.27;;;21.10;;
10442;SDS011;5269;51.146;16.986;2022-12-10T00:38:54;46.87;;;21.90;;
10442;SDS011;5269;51.146;16.986;2022-12-10T00:41:32;53.03;;;21.13;;
10442;SDS011;5269;51.146;16.986;2022-12-10T00:44:05;43.20;;;21.83;;
10442;SDS011;5269;51.146;16.986;2022-12-10T00:46:35;48.85;;;21.90;;
10442;SDS011;5269;51.146;16.986;2022-12-10T00:49:29;52.07;;;20.97;;
10442;SDS011;5269;51.146;16.986;2022-12-10T00:52:11;53.20;;;21.77;;
10442;SDS011;5269;51.146;16.986;2022-12-10T00:54:51;42.63;;;20.03;;
10442;SDS011;5269;51.146;16.986;2022-12-10T00:57:30;49.50;;;21.47;;
10442;SDS011;5269;51.146;16.986;2022-12-10T01:00:09;48.35;;;21.75;;
10442;SDS011;5269;51.146;16.986;2022-12-10T01:02:45;44.53;;;19.97;;
10442;SDS011;5269;51.146;16.986;2022-12-10T01:05:34;50.00;;;22.40;;
10442;SDS011;5269;51.146;16.986;2022-12-10T01:08:25;45.30;;;21.47;;
10442;SDS011;5269;51.146;16.986;2022-12-10T01:10:57;46.83;;;19.75;;
10442;SDS011;5269;51.146;16.986;2022-12-10T01:13:33;47.50;;;21.83;;
10442;SDS011;5269;51.146;16.986;2022-12-10T01:16:17;45.73;;;19.77;;
10442;SDS011;5269;51.146;16.986;2022-12-10T01:18:58;44.22;;;19.05;;
10442;SDS011;5269;51.146;16.986;2022-12-10T01:24:33;44.10;;;20.63;;
10442;SDS011;5269;51.146;16.986;2022-12-10T01:27:15;45.43;;;20.53;;
10442;SDS011;5269;51.146;16.986;2022-12-10T01:29:53;47.37;;;20.50;;
10442;SDS011;5269;51.146;16.986;2022-12-10T01:32:26;44.42;;;20.25;;
10442;SDS011;5269;51.146;16.986;2022-12-10T01:35:01;46.23;;;21.00;;
10442;SDS011;5269;51.146;16.986;2022-12-10T01:37:38;44.03;;;19.97;;
10442;SDS011;5269;51.146;16.986;2022-12-10T01:40:36;42.17;;;17.30;;
10442;SDS011;5269;51.146;16.986;2022-12-10T01:43:12;50.67;;;20.17;;
10442;SDS011;5269;51.146;16.986;2022-12-10T01:45:56;46.47;;;20.57;;
10442;SDS011;5269;51.146;16.986;2022-12-10T01:48:35;44.20;;;20.60;;
10442;SDS011;5269;51.146;16.986;2022-12-10T01:51:07;47.90;;;20.60;;
10442;SDS011;5269;51.146;16.986;2022-12-10T01:53:56;43.83;;;19.77;;
10442;SDS011;5269;51.146;16.986;2022-12-10T01:56:28;47.60;;;19.83;;
10442;SDS011;5269;51.146;16.986;2022-12-10T01:59:17;40.53;;;18.53;;
10442;SDS011;5269;51.146;16.986;2022-12-10T02:02:08;42.67;;;19.27;;
10442;SDS011;5269;51.146;16.986;2022-12-10T02:04:56;47.93;;;19.80;;
10442;SDS011;5269;51.146;16.986;2022-12-10T02:07:59;42.40;;;18.50;;
10442;SDS011;5269;51.146;16.986;2022-12-10T02:10:48;45.00;;;20.27;;
10442;SDS011;5269;51.146;16.986;2022-12-10T02:13:45;44.20;;;19.17;;
10442;SDS011;5269;51.146;16.986;2022-12-10T02:16:36;44.20;;;18.93;;
10442;SDS011;5269;51.146;16.986;2022-12-10T02:19:26;44.30;;;17.83;;
10442;SDS011;5269;51.146;16.986;2022-12-10T02:22:17;43.23;;;18.73;;
10442;SDS011;5269;51.146;16.986;2022-12-10T02:24:55;39.03;;;18.73;;
10442;SDS011;5269;51.146;16.986;2022-12-10T02:27:54;43.97;;;18.20;;
10442;SDS011;5269;51.146;16.986;2022-12-10T02:30:37;39.20;;;18.20;;
10442;SDS011;5269;51.146;16.986;2022-12-10T02:33:37;44.13;;;19.53;;
10442;SDS011;5269;51.146;16.986;2022-12-10T02:36:27;40.37;;;15.83;;
10442;SDS011;5269;51.146;16.986;2022-12-10T02:39:17;45.10;;;18.70;;
10442;SDS011;5269;51.146;16.986;2022-12-10T02:41:58;39.93;;;17.87;;
10442;SDS011;5269;51.146;16.986;2022-12-10T02:44:35;42.97;;;18.57;;
10442;SDS011;5269;51.146;16.986;2022-12-10T02:47:15;48.23;;;19.03;;
10442;SDS011;5269;51.146;16.986;2022-12-10T02:50:06;47.97;;;18.83;;
10442;SDS011;5269;51.146;16.986;2022-12-10T02:52:44;38.93;;;17.73;;
10442;SDS011;5269;51.146;16.986;2022-12-10T02:55:40;44.93;;;19.20;;
10442;SDS011;5269;51.146;16.986;2022-12-10T02:58:40;42.50;;;18.07;;
10442;SDS011;5269;51.146;16.986;2022-12-10T03:01:24;39.08;;;18.48;;
10442;SDS011;5269;51.146;16.986;2022-12-10T03:04:06;41.67;;;16.20;;
10442;SDS011;5269;51.146;16.986;2022-12-10T03:06:57;37.53;;;16.17;;
10442;SDS011;5269;51.146;16.986;2022-12-10T03:09:50;32.60;;;15.20;;
10442;SDS011;5269;51.146;16.986;2022-12-10T03:12:35;41.27;;;17.50;;
10442;SDS011;5269;51.146;16.986;2022-12-10T03:15:12;44.87;;;19.53;;
10442;SDS011;5269;51.146;16.986;2022-12-10T03:17:56;40.17;;;17.40;;
10442;SDS011;5269;51.146;16.986;2022-12-10T03:20:36;42.93;;;17.63;;
10442;SDS011;5269;51.146;16.986;2022-12-10T03:23:38;44.40;;;18.93;;
10442;SDS011;5269;51.146;16.986;2022-12-10T03:26:29;51.17;;;19.07;;
10442;SDS011;5269;51.146;16.986;2022-12-10T03:29:03;42.07;;;19.80;;
10442;SDS011;5269;51.146;16.986;2022-12-10T03:31:46;51.07;;;19.87;;
10442;SDS011;5269;51.146;16.986;2022-12-10T03:34:35;42.07;;;17.67;;
10442;SDS011;5269;51.146;16.986;2022-12-10T03:37:06;44.23;;;17.93;;
10442;SDS011;5269;51.146;16.986;2022-12-10T03:39:38;37.87;;;17.77;;
10442;SDS011;5269;51.146;16.986;2022-12-10T03:42:14;42.47;;;18.63;;
10442;SDS011;5269;51.146;16.986;2022-12-10T03:44:49;44.13;;;18.67;;
10442;SDS011;5269;51.146;16.986;2022-12-10T03:47:25;43.47;;;18.50;;
10442;SDS011;5269;51.146;16.986;2022-12-10T03:49:56;42.27;;;17.13;;
10442;SDS011;5269;51.146;16.986;2022-12-10T03:52:28;40.63;;;17.30;;
10442;SDS011;5269;51.146;16.986;2022-12-10T03:54:59;43.63;;;18.27;;
10442;SDS011;5269;51.146;16.986;2022-12-10T03:57:36;44.00;;;18.23;;
10442;SDS011;5269;51.146;16.986;2022-12-10T04:00:16;43.05;;;18.60;;
10442;SDS011;5269;51.146;16.986;2022-12-10T04:02:46;41.27;;;18.77;;
10442;SDS011;5269;51.146;16.986;2022-12-10T04:05:29;40.37;;;18.10;;
10442;SDS011;5269;51.146;16.986;2022-12-10T04:08:04;41.80;;;18.70;;
10442;SDS011;5269;51.146;16.986;2022-12-10T04:10:36;39.20;;;17.57;;
10442;SDS011;5269;51.146;16.986;2022-12-10T04:13:03;42.33;;;18.60;;
10442;SDS011;5269;51.146;16.986;2022-12-10T04:15:55;39.00;;;17.37;;
10442;SDS011;5269;51.146;16.986;2022-12-10T04:18:43;40.37;;;17.63;;
10442;SDS011;5269;51.146;16.986;2022-12-10T04:21:15;39.27;;;17.53;;
10442;SDS011;5269;51.146;16.986;2022-12-10T04:24:02;37.10;;;16.73;;
10442;SDS011;5269;51.146;16.986;2022-12-10T04:27:06;39.27;;;16.70;;
10442;SDS011;5269;51.146;16.986;2022-12-10T04:29:36;37.37;;;16.30;;
10442;SDS011;5269;51.146;16.986;2022-12-10T04:32:15;35.63;;;17.10;;
10442;SDS011;5269;51.146;16.986;2022-12-10T04:34:53;39.37;;;16.97;;
10442;SDS011;5269;51.146;16.986;2022-12-10T04:37:33;34.77;;;17.23;;
10442;SDS011;5269;51.146;16.986;2022-12-10T04:40:06;32.47;;;16.00;;
10442;SDS011;5269;51.146;16.986;2022-12-10T04:42:38;30.30;;;15.40;;
10442;SDS011;5269;51.146;16.986;2022-12-10T04:45:06;30.63;;;14.97;;
10442;SDS011;5269;51.146;16.986;2022-12-10T04:47:36;31.73;;;15.47;;
10442;SDS011;5269;51.146;16.986;2022-12-10T04:50:17;28.90;;;14.80;;
10442;SDS011;5269;51.146;16.986;2022-12-10T04:53:19;31.37;;;15.67;;
10442;SDS011;5269;51.146;16.986;2022-12-10T05:01:06;29.43;;;14.63;;
10442;SDS011;5269;51.146;16.986;2022-12-10T05:03:48;28.23;;;14.37;;
10442;SDS011;5269;51.146;16.986;2022-12-10T05:06:39;27.93;;;14.70;;
10442;SDS011;5269;51.146;16.986;2022-12-10T05:09:23;27.77;;;15.20;;
10442;SDS011;5269;51.146;16.986;2022-12-10T05:11:52;26.97;;;14.27;;
10442;SDS011;5269;51.146;16.986;2022-12-10T05:14:25;29.27;;;14.50;;
10442;SDS011;5269;51.146;16.986;2022-12-10T05:17:09;25.93;;;14.30;;
10442;SDS011;5269;51.146;16.986;2022-12-10T05:19:37;29.10;;;14.83;;
10442;SDS011;5269;51.146;16.986;2022-12-10T05:22:25;27.30;;;14.67;;
10442;SDS011;5269;51.146;16.986;2022-12-10T05:25:16;26.83;;;13.82;;
10442;SDS011;5269;51.146;16.986;2022-12-10T05:28:09;28.33;;;14.17;;
10442;SDS011;5269;51.146;16.986;2022-12-10T05:30:54;27.70;;;13.83;;
10442;SDS011;5269;51.146;16.986;2022-12-10T05:33:26;25.97;;;14.13;;
10442;SDS011;5269;51.146;16.986;2022-12-10T05:36:00;25.07;;;13.57;;
10442;SDS011;5269;51.146;16.986;2022-12-10T05:41:28;28.93;;;14.90;;
10442;SDS011;5269;51.146;16.986;2022-12-10T05:44:08;24.50;;;14.17;;
10442;SDS011;5269;51.146;16.986;2022-12-10T05:46:55;25.67;;;13.90;;
10442;SDS011;5269;51.146;16.986;2022-12-10T05:49:38;28.80;;;15.23;;
10442;SDS011;5269;51.146;16.986;2022-12-10T05:52:25;24.43;;;13.63;;
10442;SDS011;5269;51.146;16.986;2022-12-10T05:54:58;28.97;;;13.50;;
10442;SDS011;5269;51.146;16.986;2022-12-10T05:57:37;27.63;;;14.87;;
10442;SDS011;5269;51.146;16.986;2022-12-10T06:00:15;27.67;;;13.85;;
10442;SDS011;5269;51.146;16.986;2022-12-10T06:02:55;23.50;;;12.90;;
10442;SDS011;5269;51.146;16.986;2022-12-10T06:05:27;30.23;;;14.10;;
10442;SDS011;5269;51.146;16.986;2022-12-10T06:08:08;30.17;;;14.10;;
10442;SDS011;5269;51.146;16.986;2022-12-10T06:24:59;28.97;;;14.93;;
10442;SDS011;5269;51.146;16.986;2022-12-10T06:27:47;27.57;;;13.93;;
10442;SDS011;5269;51.146;16.986;2022-12-10T06:30:59;29.03;;;13.77;;
10442;SDS011;5269;51.146;16.986;2022-12-10T06:33:38;30.40;;;15.57;;
10442;SDS011;5269;51.146;16.986;2022-12-10T06:44:17;25.60;;;12.50;;
10442;SDS011;5269;51.146;16.986;2022-12-10T06:46:46;27.93;;;14.10;;
10442;SDS011;5269;51.146;16.986;2022-12-10T06:49:18;26.70;;;14.40;;
10442;SDS011;5269;51.146;16.986;2022-12-10T06:51:59;28.53;;;15.57;;
10442;SDS011;5269;51.146;16.986;2022-12-10T06:54:31;32.10;;;16.13;;
10442;SDS011;5269;51.146;16.986;2022-12-10T06:57:32;32.00;;;15.77;;
10442;SDS011;5269;51.146;16.986;2022-12-10T07:00:01;31.50;;;15.60;;
10442;SDS011;5269;51.146;16.986;2022-12-10T07:02:28;29.87;;;15.20;;
10442;SDS011;5269;51.146;16.986;2022-12-10T07:04:56;27.10;;;13.43;;
10442;SDS011;5269;51.146;16.986;2022-12-10T07:07:23;28.53;;;15.17;;
10442;SDS011;5269;51.146;16.986;2022-12-10T07:09:50;26.47;;;12.57;;
10442;SDS011;5269;51.146;16.986;2022-12-10T07:12:17;26.80;;;13.60;;
10442;SDS011;5269;51.146;16.986;2022-12-10T07:14:44;28.93;;;14.00;;
10442;SDS011;5269;51.146;16.986;2022-12-10T07:19:44;23.83;;;12.43;;
10442;SDS011;5269;51.146;16.986;2022-12-10T07:25:20;25.40;;;13.33;;
10442;SDS011;5269;51.146;16.986;2022-12-10T07:27:56;25.20;;;14.07;;
10442;SDS011;5269;51.146;16.986;2022-12-10T07:30:23;24.60;;;13.43;;
10442;SDS011;5269;51.146;16.986;2022-12-10T07:32:56;26.00;;;14.40;;
10442;SDS011;5269;51.146;16.986;2022-12-10T07:35:27;26.63;;;14.73;;
10442;SDS011;5269;51.146;16.986;2022-12-10T07:37:54;21.80;;;12.37;;
10442;SDS011;5269;51.146;16.986;2022-12-10T07:40:25;26.27;;;13.63;;
10442;SDS011;5269;51.146;16.986;2022-12-10T07:42:54;24.53;;;13.50;;
10442;SDS011;5269;51.146;16.986;2022-12-10T07:45:25;22.77;;;13.30;;
10442;SDS011;5269;51.146;16.986;2022-12-10T07:47:52;21.43;;;13.17;;
10442;SDS011;5269;51.146;16.986;2022-12-10T07:50:19;23.23;;;13.13;;
10442;SDS011;5269;51.146;16.986;2022-12-10T07:52:55;23.50;;;12.83;;
10442;SDS011;5269;51.146;16.986;2022-12-10T07:55:28;20.13;;;12.33;;
10442;SDS011;5269;51.146;16.986;2022-12-10T07:57:58;20.60;;;12.70;;
10442;SDS011;5269;51.146;16.986;2022-12-10T08:00:32;22.53;;;12.90;;
10442;SDS011;5269;51.146;16.986;2022-12-10T08:02:59;21.57;;;12.60;;
10442;SDS011;5269;51.146;16.986;2022-12-10T08:05:26;22.00;;;12.90;;
10442;SDS011;5269;51.146;16.986;2022-12-10T08:07:55;24.83;;;12.07;;
10442;SDS011;5269;51.146;16.986;2022-12-10T08:10:22;23.67;;;13.23;;
10442;SDS011;5269;51.146;16.986;2022-12-10T08:12:52;23.13;;;12.53;;
10442;SDS011;5269;51.146;16.986;2022-12-10T08:15:23;29.73;;;16.57;;
10442;SDS011;5269;51.146;16.986;2022-12-10T08:17:50;23.27;;;13.40;;
10442;SDS011;5269;51.146;16.986;2022-12-10T08:20:24;23.40;;;12.63;;
10442;SDS011;5269;51.146;16.986;2022-12-10T08:22:57;23.13;;;13.33;;
10442;SDS011;5269;51.146;16.986;2022-12-10T08:25:29;23.00;;;11.90;;
10442;SDS011;5269;51.146;16.986;2022-12-10T08:27:59;24.63;;;14.10;;
10442;SDS011;5269;51.146;16.986;2022-12-10T08:30:28;19.70;;;11.63;;
10442;SDS011;5269;51.146;16.986;2022-12-10T08:32:55;24.70;;;13.67;;
10442;SDS011;5269;51.146;16.986;2022-12-10T08:35:23;26.77;;;14.30;;
10442;SDS011;5269;51.146;16.986;2022-12-10T08:37:50;26.23;;;14.80;;
10442;SDS011;5269;51.146;16.986;2022-12-10T08:40:19;27.13;;;14.10;;
10442;SDS011;5269;51.146;16.986;2022-12-10T08:42:46;21.37;;;12.43;;
10442;SDS011;5269;51.146;16.986;2022-12-10T08:45:15;26.07;;;13.20;;
10442;SDS011;5269;51.146;16.986;2022-12-10T08:47:46;25.33;;;14.13;;
10442;SDS011;5269;51.146;16.986;2022-12-10T08:50:13;23.17;;;13.40;;
10442;SDS011;5269;51.146;16.986;2022-12-10T08:52:42;27.30;;;14.43;;
10442;SDS011;5269;51.146;16.986;2022-12-10T08:55:13;22.97;;;13.80;;
10442;SDS011;5269;51.146;16.986;2022-12-10T08:57:44;24.57;;;14.27;;
10442;SDS011;5269;51.146;16.986;2022-12-10T09:00:12;26.53;;;14.60;;
10442;SDS011;5269;51.146;16.986;2022-12-10T09:02:43;24.63;;;14.23;;
10442;SDS011;5269;51.146;16.986;2022-12-10T09:05:10;26.90;;;14.77;;
10442;SDS011;5269;51.146;16.986;2022-12-10T09:07:39;31.13;;;18.47;;
10442;SDS011;5269;51.146;16.986;2022-12-10T09:10:10;34.40;;;17.87;;
10442;SDS011;5269;51.146;16.986;2022-12-10T09:12:37;24.27;;;13.80;;
10442;SDS011;5269;51.146;16.986;2022-12-10T09:15:08;27.10;;;14.77;;
10442;SDS011;5269;51.146;16.986;2022-12-10T09:17:35;26.30;;;15.17;;
10442;SDS011;5269;51.146;16.986;2022-12-10T09:20:06;31.30;;;14.73;;
10442;SDS011;5269;51.146;16.986;2022-12-10T09:22:35;24.80;;;14.50;;
10442;SDS011;5269;51.146;16.986;2022-12-10T09:25:03;26.93;;;14.70;;
10442;SDS011;5269;51.146;16.986;2022-12-10T09:27:30;25.77;;;15.13;;
10442;SDS011;5269;51.146;16.986;2022-12-10T09:30:03;29.80;;;17.03;;
10442;SDS011;5269;51.146;16.986;2022-12-10T09:32:33;32.40;;;15.47;;
10442;SDS011;5269;51.146;16.986;2022-12-10T09:35:00;25.30;;;15.23;;
10442;SDS011;5269;51.146;16.986;2022-12-10T09:37:27;25.43;;;14.20;;
10442;SDS011;5269;51.146;16.986;2022-12-10T09:39:54;25.23;;;13.87;;
10442;SDS011;5269;51.146;16.986;2022-12-10T09:42:25;27.90;;;14.17;;
10442;SDS011;5269;51.146;16.986;2022-12-10T09:45:09;26.73;;;14.40;;
10442;SDS011;5269;51.146;16.986;2022-12-10T09:47:45;24.83;;;14.87;;
10442;SDS011;5269;51.146;16.986;2022-12-10T09:50:23;24.83;;;14.33;;
10442;SDS011;5269;51.146;16.986;2022-12-10T09:52:55;31.37;;;15.93;;
10442;SDS011;5269;51.146;16.986;2022-12-10T09:55:30;29.37;;;16.00;;
10442;SDS011;5269;51.146;16.986;2022-12-10T09:58:03;26.30;;;14.53;;
10442;SDS011;5269;51.146;16.986;2022-12-10T10:00:38;23.47;;;13.57;;
10442;SDS011;5269;51.146;16.986;2022-12-10T10:03:09;24.63;;;14.63;;
10442;SDS011;5269;51.146;16.986;2022-12-10T10:05:42;25.20;;;14.93;;
10442;SDS011;5269;51.146;16.986;2022-12-10T10:08:23;24.47;;;13.23;;
10442;SDS011;5269;51.146;16.986;2022-12-10T10:10:54;24.30;;;13.70;;
10442;SDS011;5269;51.146;16.986;2022-12-10T10:13:26;24.67;;;14.40;;
10442;SDS011;5269;51.146;16.986;2022-12-10T10:16:07;31.60;;;17.40;;
10442;SDS011;5269;51.146;16.986;2022-12-10T10:18:45;26.48;;;15.32;;
10442;SDS011;5269;51.146;16.986;2022-12-10T10:21:18;24.33;;;14.30;;
10442;SDS011;5269;51.146;16.986;2022-12-10T10:23:47;25.67;;;14.13;;
10442;SDS011;5269;51.146;16.986;2022-12-10T10:26:16;27.40;;;15.55;;
10442;SDS011;5269;51.146;16.986;2022-12-10T10:28:44;24.63;;;14.32;;
10442;SDS011;5269;51.146;16.986;2022-12-10T10:31:16;22.53;;;13.63;;
10442;SDS011;5269;51.146;16.986;2022-12-10T10:33:48;28.07;;;16.27;;
10442;SDS011;5269;51.146;16.986;2022-12-10T10:36:22;29.97;;;16.67;;
10442;SDS011;5269;51.146;16.986;2022-12-10T10:38:52;24.83;;;14.30;;
10442;SDS011;5269;51.146;16.986;2022-12-10T10:41:19;22.53;;;13.53;;
10442;SDS011;5269;51.146;16.986;2022-12-10T10:43:46;24.17;;;13.97;;
10442;SDS011;5269;51.146;16.986;2022-12-10T10:46:26;26.30;;;14.53;;
10442;SDS011;5269;51.146;16.986;2022-12-10T10:48:55;23.45;;;14.07;;
10442;SDS011;5269;51.146;16.986;2022-12-10T10:51:41;25.70;;;14.25;;
10442;SDS011;5269;51.146;16.986;2022-12-10T10:54:11;20.30;;;12.55;;
10442;SDS011;5269;51.146;16.986;2022-12-10T10:56:46;23.40;;;14.93;;
10442;SDS011;5269;51.146;16.986;2022-12-10T10:59:21;24.52;;;15.45;;
10442;SDS011;5269;51.146;16.986;2022-12-10T11:02:01;25.55;;;14.65;;
10442;SDS011;5269;51.146;16.986;2022-12-10T11:04:36;20.35;;;11.60;;
10442;SDS011;5269;51.146;16.986;2022-12-10T11:07:12;23.65;;;13.15;;
10442;SDS011;5269;51.146;16.986;2022-12-10T11:09:58;21.83;;;13.32;;
10442;SDS011;5269;51.146;16.986;2022-12-10T11:12:29;26.70;;;15.10;;
10442;SDS011;5269;51.146;16.986;2022-12-10T11:15:21;21.00;;;12.50;;
10442;SDS011;5269;51.146;16.986;2022-12-10T11:18:03;23.48;;;13.15;;
10442;SDS011;5269;51.146;16.986;2022-12-10T11:21:02;19.73;;;12.60;;
10442;SDS011;5269;51.146;16.986;2022-12-10T11:23:35;23.17;;;13.13;;
10442;SDS011;5269;51.146;16.986;2022-12-10T11:26:10;22.70;;;13.27;;
10442;SDS011;5269;51.146;16.986;2022-12-10T11:28:48;28.60;;;18.43;;
10442;SDS011;5269;51.146;16.986;2022-12-10T11:31:26;32.50;;;19.07;;
10442;SDS011;5269;51.146;16.986;2022-12-10T11:34:12;25.15;;;15.18;;
10442;SDS011;5269;51.146;16.986;2022-12-10T11:36:44;24.23;;;13.57;;
10442;SDS011;5269;51.146;16.986;2022-12-10T11:39:23;22.10;;;13.43;;
10442;SDS011;5269;51.146;16.986;2022-12-10T11:42:03;22.60;;;13.53;;
10442;SDS011;5269;51.146;16.986;2022-12-10T11:44:43;23.40;;;13.90;;
10442;SDS011;5269;51.146;16.986;2022-12-10T11:47:23;21.33;;;13.32;;
10442;SDS011;5269;51.146;16.986;2022-12-10T11:50:16;25.53;;;14.03;;
10442;SDS011;5269;51.146;16.986;2022-12-10T11:52:55;23.07;;;14.63;;
10442;SDS011;5269;51.146;16.986;2022-12-10T11:55:33;22.47;;;13.20;;
10442;SDS011;5269;51.146;16.986;2022-12-10T11:58:32;23.05;;;13.93;;
10442;SDS011;5269;51.146;16.986;2022-12-10T12:01:09;21.35;;;13.15;;
10442;SDS011;5269;51.146;16.986;2022-12-10T12:03:49;25.60;;;14.03;;
10442;SDS011;5269;51.146;16.986;2022-12-10T12:06:51;22.47;;;13.90;;
10442;SDS011;5269;51.146;16.986;2022-12-10T12:09:36;23.90;;;13.93;;
10442;SDS011;5269;51.146;16.986;2022-12-10T12:12:15;22.67;;;13.53;;
10442;SDS011;5269;51.146;16.986;2022-12-10T12:14:50;23.40;;;13.43;;
10442;SDS011;5269;51.146;16.986;2022-12-10T12:17:21;24.03;;;13.73;;
10442;SDS011;5269;51.146;16.986;2022-12-10T12:19:53;26.50;;;14.80;;
10442;SDS011;5269;51.146;16.986;2022-12-10T12:22:27;23.65;;;14.68;;
10442;SDS011;5269;51.146;16.986;2022-12-10T12:25:00;24.07;;;14.10;;
10442;SDS011;5269;51.146;16.986;2022-12-10T12:27:33;23.97;;;14.67;;
10442;SDS011;5269;51.146;16.986;2022-12-10T12:30:04;23.55;;;15.27;;
10442;SDS011;5269;51.146;16.986;2022-12-10T12:32:36;24.57;;;13.37;;
10442;SDS011;5269;51.146;16.986;2022-12-10T12:35:12;23.77;;;15.27;;
10442;SDS011;5269;51.146;16.986;2022-12-10T12:37:45;26.73;;;14.93;;
10442;SDS011;5269;51.146;16.986;2022-12-10T12:40:27;25.90;;;15.63;;
10442;SDS011;5269;51.146;16.986;2022-12-10T12:42:57;27.30;;;15.90;;
10442;SDS011;5269;51.146;16.986;2022-12-10T12:45:31;27.13;;;15.93;;
10442;SDS011;5269;51.146;16.986;2022-12-10T12:48:05;27.07;;;15.90;;
10442;SDS011;5269;51.146;16.986;2022-12-10T12:50:42;27.17;;;15.83;;
10442;SDS011;5269;51.146;16.986;2022-12-10T12:53:12;27.33;;;15.90;;
10442;SDS011;5269;51.146;16.986;2022-12-10T12:55:44;25.53;;;15.40;;
10442;SDS011;5269;51.146;16.986;2022-12-10T12:58:22;26.80;;;15.10;;
10442;SDS011;5269;51.146;16.986;2022-12-10T13:00:55;30.05;;;15.65;;
10442;SDS011;5269;51.146;16.986;2022-12-10T13:03:29;28.60;;;15.93;;
10442;SDS011;5269;51.146;16.986;2022-12-10T13:06:17;27.85;;;16.40;;
10442;SDS011;5269;51.146;16.986;2022-12-10T13:08:49;28.77;;;16.53;;
10442;SDS011;5269;51.146;16.986;2022-12-10T13:11:31;29.30;;;16.43;;
10442;SDS011;5269;51.146;16.986;2022-12-10T13:20:25;29.23;;;16.67;;
10442;SDS011;5269;51.146;16.986;2022-12-10T13:23:47;27.23;;;15.00;;
10442;SDS011;5269;51.146;16.986;2022-12-10T13:26:24;31.90;;;16.20;;
10442;SDS011;5269;51.146;16.986;2022-12-10T13:28:52;27.10;;;15.67;;
10442;SDS011;5269;51.146;16.986;2022-12-10T13:31:33;28.80;;;15.90;;
10442;SDS011;5269;51.146;16.986;2022-12-10T13:34:17;29.90;;;15.87;;
10442;SDS011;5269;51.146;16.986;2022-12-10T13:37:10;31.10;;;15.90;;
10442;SDS011;5269;51.146;16.986;2022-12-10T13:40:12;31.33;;;17.63;;
10442;SDS011;5269;51.146;16.986;2022-12-10T13:43:22;27.08;;;16.05;;
10442;SDS011;5269;51.146;16.986;2022-12-10T13:46:26;27.87;;;16.00;;
10442;SDS011;5269;51.146;16.986;2022-12-10T13:49:24;31.50;;;17.20;;
10442;SDS011;5269;51.146;16.986;2022-12-10T13:51:54;27.90;;;17.38;;
10442;SDS011;5269;51.146;16.986;2022-12-10T13:57:26;32.30;;;17.43;;
10442;SDS011;5269;51.146;16.986;2022-12-10T14:00:15;30.83;;;17.50;;
10442;SDS011;5269;51.146;16.986;2022-12-10T14:02:54;33.25;;;17.48;;
10442;SDS011;5269;51.146;16.986;2022-12-10T14:05:53;28.13;;;16.33;;
10442;SDS011;5269;51.146;16.986;2022-12-10T14:08:32;28.50;;;15.13;;
10442;SDS011;5269;51.146;16.986;2022-12-10T14:11:03;32.42;;;18.73;;
10442;SDS011;5269;51.146;16.986;2022-12-10T14:13:33;32.05;;;17.05;;
10442;SDS011;5269;51.146;16.986;2022-12-10T14:16:10;31.53;;;17.93;;
10442;SDS011;5269;51.146;16.986;2022-12-10T14:18:41;28.83;;;17.35;;
10442;SDS011;5269;51.146;16.986;2022-12-10T14:21:14;30.27;;;17.10;;
10442;SDS011;5269;51.146;16.986;2022-12-10T14:23:43;34.05;;;16.85;;
10442;SDS011;5269;51.146;16.986;2022-12-10T14:26:14;34.40;;;18.80;;
10442;SDS011;5269;51.146;16.986;2022-12-10T14:28:54;38.80;;;21.70;;
10442;SDS011;5269;51.146;16.986;2022-12-10T14:31:24;29.50;;;16.75;;
10442;SDS011;5269;51.146;16.986;2022-12-10T14:33:59;36.37;;;20.60;;
10442;SDS011;5269;51.146;16.986;2022-12-10T14:36:33;31.90;;;17.77;;
10442;SDS011;5269;51.146;16.986;2022-12-10T14:39:11;31.13;;;17.40;;
10442;SDS011;5269;51.146;16.986;2022-12-10T14:41:40;27.90;;;16.53;;
10442;SDS011;5269;51.146;16.986;2022-12-10T14:44:14;29.27;;;16.37;;
10442;SDS011;5269;51.146;16.986;2022-12-10T14:46:44;28.43;;;16.10;;
10442;SDS011;5269;51.146;16.986;2022-12-10T14:49:26;31.90;;;17.47;;
10442;SDS011;5269;51.146;16.986;2022-12-10T14:51:57;30.87;;;16.90;;
10442;SDS011;5269;51.146;16.986;2022-12-10T14:54:37;26.83;;;14.83;;
10442;SDS011;5269;51.146;16.986;2022-12-10T14:57:05;28.23;;;15.63;;
10442;SDS011;5269;51.146;16.986;2022-12-10T14:59:43;28.77;;;15.60;;
10442;SDS011;5269;51.146;16.986;2022-12-10T15:02:16;29.33;;;14.73;;
10442;SDS011;5269;51.146;16.986;2022-12-10T15:04:56;27.52;;;15.48;;
10442;SDS011;5269;51.146;16.986;2022-12-10T15:07:33;32.07;;;16.87;;
10442;SDS011;5269;51.146;16.986;2022-12-10T15:10:02;31.90;;;16.80;;
10442;SDS011;5269;51.146;16.986;2022-12-10T15:12:36;30.43;;;16.43;;
10442;SDS011;5269;51.146;16.986;2022-12-10T15:15:15;30.50;;;16.37;;
10442;SDS011;5269;51.146;16.986;2022-12-10T15:17:55;30.67;;;16.87;;
10442;SDS011;5269;51.146;16.986;2022-12-10T15:20:37;30.07;;;16.50;;
10442;SDS011;5269;51.146;16.986;2022-12-10T15:23:25;31.50;;;16.00;;
10442;SDS011;5269;51.146;16.986;2022-12-10T15:26:14;28.67;;;16.47;;
10442;SDS011;5269;51.146;16.986;2022-12-10T15:28:46;32.33;;;17.03;;
10442;SDS011;5269;51.146;16.986;2022-12-10T15:31:19;30.60;;;17.27;;
10442;SDS011;5269;51.146;16.986;2022-12-10T15:34:08;34.20;;;17.63;;
10442;SDS011;5269;51.146;16.986;2022-12-10T15:36:43;34.43;;;17.20;;
10442;SDS011;5269;51.146;16.986;2022-12-10T15:39:28;32.10;;;17.60;;
10442;SDS011;5269;51.146;16.986;2022-12-10T15:42:01;34.43;;;17.43;;
10442;SDS011;5269;51.146;16.986;2022-12-10T15:44:32;31.58;;;17.02;;
10442;SDS011;5269;51.146;16.986;2022-12-10T15:47:17;32.55;;;16.30;;
10442;SDS011;5269;51.146;16.986;2022-12-10T15:49:54;32.35;;;16.58;;
10442;SDS011;5269;51.146;16.986;2022-12-10T15:52:23;34.30;;;17.60;;
10442;SDS011;5269;51.146;16.986;2022-12-10T15:54:53;30.37;;;16.83;;
10442;SDS011;5269;51.146;16.986;2022-12-10T15:57:28;32.33;;;16.23;;
10442;SDS011;5269;51.146;16.986;2022-12-10T16:00:00;36.67;;;18.57;;
10442;SDS011;5269;51.146;16.986;2022-12-10T16:02:34;35.95;;;18.02;;
10442;SDS011;5269;51.146;16.986;2022-12-10T16:05:04;31.87;;;17.87;;
10442;SDS011;5269;51.146;16.986;2022-12-10T16:07:37;33.83;;;18.27;;
10442;SDS011;5269;51.146;16.986;2022-12-10T16:10:07;32.27;;;16.90;;
10442;SDS011;5269;51.146;16.986;2022-12-10T16:12:44;36.83;;;19.10;;